sensor_id;sensor_type;location;lat;lon;timestamp;P1;durP1;ratioP1;P2;durP2;ratioP2
71814;SDS011;59659;41.520;23.794;2022-08-03T00:00:56;1.57;;;1.20;;
71814;SDS011;59659;41.520;23.794;2022-08-03T00:02:08;2.10;;;1.20;;
71814;SDS011;59659;41.520;23.794;2022-08-03T00:03:19;1.47;;;1.10;;
71814;SDS011;59659;41.520;23.794;2022-08-03T00:04:31;2.60;;;1.40;;
71814;SDS011;59659;41.520;23.794;2022-08-03T00:05:44;1.10;;;1.00;;
71814;SDS011;59659;41.520;23.794;2022-08-03T00:07:15;2.23;;;1.33;;
71814;SDS011;59659;41.520;23.794;2022-08-03T00:08:26;4.87;;;1.37;;
71814;SDS011;59659;41.520;23.794;2022-08-03T00:09:38;1.47;;;0.90;;
71814;SDS011;59659;41.520;23.794;2022-08-03T00:10:50;1.20;;;1.10;;
71814;SDS011;59659;41.520;23.794;2022-08-03T00:12:02;2.57;;;1.33;;
71814;SDS011;59659;41.520;23.794;2022-08-03T00:13:13;1.60;;;1.40;;
71814;SDS011;59659;41.520;23.794;2022-08-03T00:14:25;1.50;;;1.10;;
71814;SDS011;59659;41.520;23.794;2022-08-03T00:15:36;1.07;;;0.97;;
71814;SDS011;59659;41.520;23.794;2022-08-03T00:16:48;1.20;;;1.10;;
71814;SDS011;59659;41.520;23.794;2022-08-03T00:17:59;1.50;;;1.20;;
71814;SDS011;59659;41.520;23.794;2022-08-03T00:19:11;1.53;;;1.20;;
71814;SDS011;59659;41.520;23.794;2022-08-03T00:20:23;1.37;;;1.10;;
71814;SDS011;59659;41.520;23.794;2022-08-03T00:21:34;1.40;;;1.30;;
71814;SDS011;59659;41.520;23.794;2022-08-03T00:22:46;3.57;;;1.27;;
71814;SDS011;59659;41.520;23.794;2022-08-03T00:23:58;1.37;;;1.03;;
71814;SDS011;59659;41.520;23.794;2022-08-03T00:25:09;2.13;;;1.20;;
71814;SDS011;59659;41.520;23.794;2022-08-03T00:26:21;1.60;;;1.30;;
71814;SDS011;59659;41.520;23.794;2022-08-03T00:27:32;1.77;;;1.37;;
71814;SDS011;59659;41.520;23.794;2022-08-03T00:28:45;2.93;;;1.77;;
71814;SDS011;59659;41.520;23.794;2022-08-03T00:29:57;1.67;;;1.20;;
71814;SDS011;59659;41.520;23.794;2022-08-03T00:31:10;2.03;;;1.43;;
71814;SDS011;59659;41.520;23.794;2022-08-03T00:32:23;1.50;;;1.40;;
71814;SDS011;59659;41.520;23.794;2022-08-03T00:33:36;1.67;;;1.37;;
71814;SDS011;59659;41.520;23.794;2022-08-03T00:35:08;1.50;;;1.30;;
71814;SDS011;59659;41.520;23.794;2022-08-03T00:36:28;1.97;;;1.47;;
71814;SDS011;59659;41.520;23.794;2022-08-03T00:37:40;1.63;;;1.40;;
71814;SDS011;59659;41.520;23.794;2022-08-03T00:38:52;1.40;;;1.23;;
71814;SDS011;59659;41.520;23.794;2022-08-03T00:40:03;2.27;;;1.30;;
71814;SDS011;59659;41.520;23.794;2022-08-03T00:41:15;2.17;;;1.20;;
71814;SDS011;59659;41.520;23.794;2022-08-03T00:42:27;1.80;;;1.33;;
71814;SDS011;59659;41.520;23.794;2022-08-03T00:43:38;2.00;;;1.63;;
71814;SDS011;59659;41.520;23.794;2022-08-03T00:44:50;1.70;;;1.10;;
71814;SDS011;59659;41.520;23.794;2022-08-03T00:46:02;4.90;;;1.30;;
71814;SDS011;59659;41.520;23.794;2022-08-03T00:47:13;1.70;;;1.30;;
71814;SDS011;59659;41.520;23.794;2022-08-03T00:48:25;4.00;;;1.53;;
71814;SDS011;59659;41.520;23.794;2022-08-03T00:49:43;2.77;;;1.50;;
71814;SDS011;59659;41.520;23.794;2022-08-03T00:50:55;3.37;;;2.03;;
71814;SDS011;59659;41.520;23.794;2022-08-03T00:52:07;3.00;;;1.60;;
71814;SDS011;59659;41.520;23.794;2022-08-03T00:53:20;3.00;;;1.63;;
71814;SDS011;59659;41.520;23.794;2022-08-03T00:54:32;3.40;;;1.60;;
71814;SDS011;59659;41.520;23.794;2022-08-03T00:55:44;2.43;;;1.90;;
71814;SDS011;59659;41.520;23.794;2022-08-03T00:56:56;2.77;;;1.90;;
71814;SDS011;59659;41.520;23.794;2022-08-03T00:58:10;2.67;;;1.90;;
71814;SDS011;59659;41.520;23.794;2022-08-03T00:59:22;3.30;;;2.20;;
71814;SDS011;59659;41.520;23.794;2022-08-03T01:00:34;3.83;;;1.83;;
71814;SDS011;59659;41.520;23.794;2022-08-03T01:01:49;3.00;;;1.80;;
71814;SDS011;59659;41.520;23.794;2022-08-03T01:03:01;2.77;;;1.80;;
71814;SDS011;59659;41.520;23.794;2022-08-03T01:04:13;5.10;;;1.70;;
71814;SDS011;59659;41.520;23.794;2022-08-03T01:05:24;2.00;;;1.40;;
71814;SDS011;59659;41.520;23.794;2022-08-03T01:08:01;2.87;;;1.53;;
71814;SDS011;59659;41.520;23.794;2022-08-03T01:09:20;2.27;;;1.57;;
71814;SDS011;59659;41.520;23.794;2022-08-03T01:11:50;2.30;;;1.40;;
71814;SDS011;59659;41.520;23.794;2022-08-03T01:17:31;1.60;;;1.40;;
71814;SDS011;59659;41.520;23.794;2022-08-03T01:18:50;3.00;;;1.63;;
71814;SDS011;59659;41.520;23.794;2022-08-03T01:21:17;1.90;;;1.40;;
71814;SDS011;59659;41.520;23.794;2022-08-03T01:26:41;1.73;;;1.40;;
71814;SDS011;59659;41.520;23.794;2022-08-03T01:31:00;1.50;;;1.30;;
71814;SDS011;59659;41.520;23.794;2022-08-03T01:32:14;1.93;;;1.57;;
71814;SDS011;59659;41.520;23.794;2022-08-03T01:33:49;2.20;;;1.40;;
71814;SDS011;59659;41.520;23.794;2022-08-03T01:35:08;2.40;;;1.60;;
71814;SDS011;59659;41.520;23.794;2022-08-03T01:36:21;3.30;;;1.50;;
71814;SDS011;59659;41.520;23.794;2022-08-03T01:37:37;2.07;;;1.50;;
71814;SDS011;59659;41.520;23.794;2022-08-03T01:38:52;2.40;;;1.50;;
71814;SDS011;59659;41.520;23.794;2022-08-03T01:40:04;1.47;;;1.30;;
71814;SDS011;59659;41.520;23.794;2022-08-03T01:41:28;2.53;;;1.47;;
71814;SDS011;59659;41.520;23.794;2022-08-03T01:42:41;1.80;;;1.50;;
71814;SDS011;59659;41.520;23.794;2022-08-03T01:43:56;3.30;;;1.27;;
71814;SDS011;59659;41.520;23.794;2022-08-03T01:45:28;2.93;;;1.30;;
71814;SDS011;59659;41.520;23.794;2022-08-03T01:46:44;3.33;;;1.40;;
71814;SDS011;59659;41.520;23.794;2022-08-03T01:47:59;2.60;;;1.50;;
71814;SDS011;59659;41.520;23.794;2022-08-03T01:49:11;1.97;;;1.20;;
71814;SDS011;59659;41.520;23.794;2022-08-03T01:50:23;5.27;;;1.50;;
71814;SDS011;59659;41.520;23.794;2022-08-03T01:51:37;3.50;;;1.70;;
71814;SDS011;59659;41.520;23.794;2022-08-03T01:53:09;1.50;;;1.13;;
71814;SDS011;59659;41.520;23.794;2022-08-03T01:54:23;1.67;;;1.30;;
71814;SDS011;59659;41.520;23.794;2022-08-03T01:55:36;1.80;;;1.30;;
71814;SDS011;59659;41.520;23.794;2022-08-03T01:56:51;2.13;;;1.30;;
71814;SDS011;59659;41.520;23.794;2022-08-03T01:58:04;1.67;;;1.23;;
71814;SDS011;59659;41.520;23.794;2022-08-03T01:59:18;1.40;;;1.30;;
71814;SDS011;59659;41.520;23.794;2022-08-03T02:00:30;2.03;;;1.50;;
71814;SDS011;59659;41.520;23.794;2022-08-03T02:01:42;2.10;;;1.57;;
71814;SDS011;59659;41.520;23.794;2022-08-03T02:03:14;2.83;;;1.30;;
71814;SDS011;59659;41.520;23.794;2022-08-03T02:04:26;1.70;;;1.30;;
71814;SDS011;59659;41.520;23.794;2022-08-03T02:05:39;1.67;;;1.33;;
71814;SDS011;59659;41.520;23.794;2022-08-03T02:06:51;1.83;;;1.40;;
71814;SDS011;59659;41.520;23.794;2022-08-03T02:08:12;2.03;;;1.50;;
71814;SDS011;59659;41.520;23.794;2022-08-03T02:09:27;1.97;;;1.30;;
71814;SDS011;59659;41.520;23.794;2022-08-03T02:10:40;1.53;;;1.30;;
71814;SDS011;59659;41.520;23.794;2022-08-03T02:11:52;3.27;;;1.90;;
71814;SDS011;59659;41.520;23.794;2022-08-03T02:13:05;1.93;;;1.60;;
71814;SDS011;59659;41.520;23.794;2022-08-03T02:14:18;4.50;;;1.90;;
71814;SDS011;59659;41.520;23.794;2022-08-03T02:15:30;2.30;;;1.60;;
71814;SDS011;59659;41.520;23.794;2022-08-03T02:16:43;2.10;;;1.80;;
71814;SDS011;59659;41.520;23.794;2022-08-03T02:17:55;2.67;;;1.70;;
71814;SDS011;59659;41.520;23.794;2022-08-03T02:19:07;4.57;;;1.63;;
71814;SDS011;59659;41.520;23.794;2022-08-03T02:20:21;3.90;;;1.70;;
71814;SDS011;59659;41.520;23.794;2022-08-03T02:21:34;3.93;;;1.70;;
71814;SDS011;59659;41.520;23.794;2022-08-03T02:23:06;4.07;;;1.70;;
71814;SDS011;59659;41.520;23.794;2022-08-03T02:24:18;1.60;;;1.20;;
71814;SDS011;59659;41.520;23.794;2022-08-03T02:25:30;3.53;;;1.70;;
71814;SDS011;59659;41.520;23.794;2022-08-03T02:26:42;4.47;;;1.60;;
71814;SDS011;59659;41.520;23.794;2022-08-03T02:27:55;6.23;;;1.60;;
71814;SDS011;59659;41.520;23.794;2022-08-03T02:29:11;1.83;;;1.40;;
71814;SDS011;59659;41.520;23.794;2022-08-03T02:30:25;2.13;;;1.93;;
71814;SDS011;59659;41.520;23.794;2022-08-03T02:31:38;3.10;;;1.33;;
71814;SDS011;59659;41.520;23.794;2022-08-03T02:32:54;1.67;;;1.37;;
71814;SDS011;59659;41.520;23.794;2022-08-03T02:34:07;3.27;;;1.50;;
71814;SDS011;59659;41.520;23.794;2022-08-03T02:35:20;2.00;;;1.20;;
71814;SDS011;59659;41.520;23.794;2022-08-03T02:36:34;2.17;;;1.37;;
71814;SDS011;59659;41.520;23.794;2022-08-03T02:37:47;2.03;;;1.67;;
71814;SDS011;59659;41.520;23.794;2022-08-03T02:39:00;2.63;;;1.90;;
71814;SDS011;59659;41.520;23.794;2022-08-03T02:40:11;1.97;;;1.50;;
71814;SDS011;59659;41.520;23.794;2022-08-03T02:41:26;1.50;;;1.40;;
71814;SDS011;59659;41.520;23.794;2022-08-03T02:42:40;1.90;;;1.30;;
71814;SDS011;59659;41.520;23.794;2022-08-03T02:43:53;1.83;;;1.57;;
71814;SDS011;59659;41.520;23.794;2022-08-03T02:45:17;1.60;;;1.43;;
71814;SDS011;59659;41.520;23.794;2022-08-03T02:46:31;1.63;;;1.30;;
71814;SDS011;59659;41.520;23.794;2022-08-03T02:47:43;1.87;;;1.40;;
71814;SDS011;59659;41.520;23.794;2022-08-03T02:49:05;2.87;;;2.17;;
71814;SDS011;59659;41.520;23.794;2022-08-03T02:50:36;1.83;;;1.47;;
71814;SDS011;59659;41.520;23.794;2022-08-03T02:51:48;2.67;;;1.90;;
71814;SDS011;59659;41.520;23.794;2022-08-03T02:53:02;2.53;;;1.47;;
71814;SDS011;59659;41.520;23.794;2022-08-03T02:54:17;3.00;;;1.67;;
71814;SDS011;59659;41.520;23.794;2022-08-03T02:55:29;3.50;;;1.90;;
71814;SDS011;59659;41.520;23.794;2022-08-03T02:56:43;2.17;;;1.77;;
71814;SDS011;59659;41.520;23.794;2022-08-03T02:57:55;5.27;;;2.37;;
71814;SDS011;59659;41.520;23.794;2022-08-03T02:59:11;3.00;;;1.90;;
71814;SDS011;59659;41.520;23.794;2022-08-03T03:00:24;2.27;;;1.73;;
71814;SDS011;59659;41.520;23.794;2022-08-03T03:01:38;2.37;;;1.50;;
71814;SDS011;59659;41.520;23.794;2022-08-03T03:02:50;2.40;;;1.70;;
71814;SDS011;59659;41.520;23.794;2022-08-03T03:04:03;1.90;;;1.50;;
71814;SDS011;59659;41.520;23.794;2022-08-03T03:05:19;1.70;;;1.37;;
71814;SDS011;59659;41.520;23.794;2022-08-03T03:06:50;3.30;;;1.70;;
71814;SDS011;59659;41.520;23.794;2022-08-03T03:08:04;1.73;;;1.57;;
71814;SDS011;59659;41.520;23.794;2022-08-03T03:09:29;5.73;;;1.60;;
71814;SDS011;59659;41.520;23.794;2022-08-03T03:10:52;1.80;;;1.53;;
71814;SDS011;59659;41.520;23.794;2022-08-03T03:12:06;2.07;;;1.70;;
71814;SDS011;59659;41.520;23.794;2022-08-03T03:13:18;2.13;;;1.60;;
71814;SDS011;59659;41.520;23.794;2022-08-03T03:14:31;1.83;;;1.57;;
71814;SDS011;59659;41.520;23.794;2022-08-03T03:15:44;4.27;;;1.53;;
71814;SDS011;59659;41.520;23.794;2022-08-03T03:16:56;1.77;;;1.50;;
71814;SDS011;59659;41.520;23.794;2022-08-03T03:18:08;2.67;;;1.70;;
71814;SDS011;59659;41.520;23.794;2022-08-03T03:19:20;1.87;;;1.67;;
71814;SDS011;59659;41.520;23.794;2022-08-03T03:20:33;2.90;;;1.67;;
71814;SDS011;59659;41.520;23.794;2022-08-03T03:21:46;5.27;;;1.80;;
71814;SDS011;59659;41.520;23.794;2022-08-03T03:22:57;2.23;;;1.37;;
71814;SDS011;59659;41.520;23.794;2022-08-03T03:24:10;4.70;;;2.03;;
71814;SDS011;59659;41.520;23.794;2022-08-03T03:25:22;3.33;;;1.90;;
71814;SDS011;59659;41.520;23.794;2022-08-03T03:26:34;1.80;;;1.60;;
71814;SDS011;59659;41.520;23.794;2022-08-03T03:27:52;3.27;;;1.80;;
71814;SDS011;59659;41.520;23.794;2022-08-03T03:29:05;2.10;;;1.50;;
71814;SDS011;59659;41.520;23.794;2022-08-03T03:30:17;5.93;;;1.80;;
71814;SDS011;59659;41.520;23.794;2022-08-03T03:31:28;3.27;;;1.90;;
71814;SDS011;59659;41.520;23.794;2022-08-03T03:32:40;2.33;;;1.90;;
71814;SDS011;59659;41.520;23.794;2022-08-03T03:33:52;2.23;;;1.80;;
71814;SDS011;59659;41.520;23.794;2022-08-03T03:35:04;1.93;;;1.60;;
71814;SDS011;59659;41.520;23.794;2022-08-03T03:36:15;2.07;;;1.57;;
71814;SDS011;59659;41.520;23.794;2022-08-03T03:37:28;3.13;;;1.80;;
71814;SDS011;59659;41.520;23.794;2022-08-03T03:38:40;3.60;;;1.90;;
71814;SDS011;59659;41.520;23.794;2022-08-03T03:39:52;2.83;;;1.80;;
71814;SDS011;59659;41.520;23.794;2022-08-03T03:41:04;2.93;;;1.97;;
71814;SDS011;59659;41.520;23.794;2022-08-03T03:42:16;2.83;;;2.00;;
71814;SDS011;59659;41.520;23.794;2022-08-03T03:43:28;2.13;;;1.43;;
71814;SDS011;59659;41.520;23.794;2022-08-03T03:44:39;3.27;;;2.07;;
71814;SDS011;59659;41.520;23.794;2022-08-03T03:45:51;2.40;;;1.73;;
71814;SDS011;59659;41.520;23.794;2022-08-03T03:47:03;3.67;;;2.00;;
71814;SDS011;59659;41.520;23.794;2022-08-03T03:48:15;2.40;;;1.87;;
71814;SDS011;59659;41.520;23.794;2022-08-03T03:49:27;3.43;;;2.00;;
71814;SDS011;59659;41.520;23.794;2022-08-03T03:50:39;12.50;;;2.23;;
71814;SDS011;59659;41.520;23.794;2022-08-03T03:51:51;3.67;;;1.87;;
71814;SDS011;59659;41.520;23.794;2022-08-03T03:53:04;3.70;;;1.70;;
71814;SDS011;59659;41.520;23.794;2022-08-03T03:54:19;3.00;;;1.90;;
71814;SDS011;59659;41.520;23.794;2022-08-03T03:55:31;2.87;;;1.73;;
71814;SDS011;59659;41.520;23.794;2022-08-03T03:56:43;4.50;;;1.80;;
71814;SDS011;59659;41.520;23.794;2022-08-03T03:57:54;2.90;;;2.00;;
71814;SDS011;59659;41.520;23.794;2022-08-03T03:59:06;2.20;;;1.70;;
71814;SDS011;59659;41.520;23.794;2022-08-03T04:00:18;2.77;;;1.80;;
71814;SDS011;59659;41.520;23.794;2022-08-03T04:01:29;3.80;;;1.50;;
71814;SDS011;59659;41.520;23.794;2022-08-03T04:02:41;4.33;;;1.83;;
71814;SDS011;59659;41.520;23.794;2022-08-03T04:03:53;1.40;;;1.23;;
71814;SDS011;59659;41.520;23.794;2022-08-03T04:05:04;1.80;;;1.40;;
71814;SDS011;59659;41.520;23.794;2022-08-03T04:06:35;3.67;;;1.77;;
71814;SDS011;59659;41.520;23.794;2022-08-03T04:08:11;1.97;;;1.73;;
71814;SDS011;59659;41.520;23.794;2022-08-03T04:09:42;2.57;;;1.57;;
71814;SDS011;59659;41.520;23.794;2022-08-03T04:11:26;2.40;;;1.60;;
71814;SDS011;59659;41.520;23.794;2022-08-03T04:12:41;3.00;;;1.70;;
71814;SDS011;59659;41.520;23.794;2022-08-03T04:14:05;4.63;;;2.00;;
71814;SDS011;59659;41.520;23.794;2022-08-03T04:15:19;3.13;;;1.90;;
71814;SDS011;59659;41.520;23.794;2022-08-03T04:16:31;2.37;;;1.73;;
71814;SDS011;59659;41.520;23.794;2022-08-03T04:17:44;2.63;;;1.80;;
71814;SDS011;59659;41.520;23.794;2022-08-03T04:18:56;2.27;;;1.70;;
71814;SDS011;59659;41.520;23.794;2022-08-03T04:20:09;5.57;;;1.73;;
71814;SDS011;59659;41.520;23.794;2022-08-03T04:21:21;2.00;;;1.60;;
71814;SDS011;59659;41.520;23.794;2022-08-03T04:22:33;2.07;;;1.77;;
71814;SDS011;59659;41.520;23.794;2022-08-03T04:23:47;2.27;;;1.80;;
71814;SDS011;59659;41.520;23.794;2022-08-03T04:25:00;4.73;;;1.97;;
71814;SDS011;59659;41.520;23.794;2022-08-03T04:26:14;3.53;;;1.90;;
71814;SDS011;59659;41.520;23.794;2022-08-03T04:27:28;4.20;;;2.00;;
71814;SDS011;59659;41.520;23.794;2022-08-03T04:28:40;2.30;;;1.80;;
71814;SDS011;59659;41.520;23.794;2022-08-03T04:29:55;2.93;;;1.97;;
71814;SDS011;59659;41.520;23.794;2022-08-03T04:31:07;5.77;;;2.43;;
71814;SDS011;59659;41.520;23.794;2022-08-03T04:32:19;4.70;;;1.87;;
71814;SDS011;59659;41.520;23.794;2022-08-03T04:33:34;3.33;;;1.73;;
71814;SDS011;59659;41.520;23.794;2022-08-03T04:34:48;3.07;;;1.70;;
71814;SDS011;59659;41.520;23.794;2022-08-03T04:36:00;5.80;;;2.43;;
71814;SDS011;59659;41.520;23.794;2022-08-03T04:37:17;3.23;;;1.87;;
71814;SDS011;59659;41.520;23.794;2022-08-03T04:38:31;3.20;;;1.70;;
71814;SDS011;59659;41.520;23.794;2022-08-03T04:39:49;3.77;;;2.20;;
71814;SDS011;59659;41.520;23.794;2022-08-03T04:41:01;2.27;;;1.70;;
71814;SDS011;59659;41.520;23.794;2022-08-03T04:42:13;2.93;;;2.20;;
71814;SDS011;59659;41.520;23.794;2022-08-03T04:43:25;2.90;;;1.80;;
71814;SDS011;59659;41.520;23.794;2022-08-03T04:44:39;2.70;;;2.20;;
71814;SDS011;59659;41.520;23.794;2022-08-03T04:45:51;3.73;;;2.87;;
71814;SDS011;59659;41.520;23.794;2022-08-03T04:47:03;4.07;;;3.20;;
71814;SDS011;59659;41.520;23.794;2022-08-03T04:48:14;2.73;;;2.03;;
71814;SDS011;59659;41.520;23.794;2022-08-03T04:49:30;2.97;;;2.57;;
71814;SDS011;59659;41.520;23.794;2022-08-03T04:50:42;3.20;;;2.30;;
71814;SDS011;59659;41.520;23.794;2022-08-03T04:51:53;5.77;;;2.60;;
71814;SDS011;59659;41.520;23.794;2022-08-03T04:53:05;3.00;;;2.07;;
71814;SDS011;59659;41.520;23.794;2022-08-03T04:54:17;2.53;;;2.07;;
71814;SDS011;59659;41.520;23.794;2022-08-03T04:55:29;4.33;;;2.40;;
71814;SDS011;59659;41.520;23.794;2022-08-03T04:56:43;2.53;;;2.03;;
71814;SDS011;59659;41.520;23.794;2022-08-03T04:57:55;2.60;;;2.20;;
71814;SDS011;59659;41.520;23.794;2022-08-03T04:59:07;2.40;;;2.20;;
71814;SDS011;59659;41.520;23.794;2022-08-03T05:00:19;3.20;;;2.20;;
71814;SDS011;59659;41.520;23.794;2022-08-03T05:01:31;4.03;;;2.30;;
71814;SDS011;59659;41.520;23.794;2022-08-03T05:02:42;3.93;;;2.10;;
71814;SDS011;59659;41.520;23.794;2022-08-03T05:03:54;3.87;;;2.20;;
71814;SDS011;59659;41.520;23.794;2022-08-03T05:05:06;3.13;;;1.90;;
71814;SDS011;59659;41.520;23.794;2022-08-03T05:06:17;2.90;;;1.70;;
71814;SDS011;59659;41.520;23.794;2022-08-03T05:07:31;3.40;;;2.33;;
71814;SDS011;59659;41.520;23.794;2022-08-03T05:08:46;4.17;;;2.60;;
71814;SDS011;59659;41.520;23.794;2022-08-03T05:10:00;2.97;;;2.20;;
71814;SDS011;59659;41.520;23.794;2022-08-03T05:11:14;3.23;;;2.60;;
71814;SDS011;59659;41.520;23.794;2022-08-03T05:12:26;3.67;;;2.43;;
71814;SDS011;59659;41.520;23.794;2022-08-03T05:13:43;10.53;;;2.40;;
71814;SDS011;59659;41.520;23.794;2022-08-03T05:14:54;2.33;;;2.03;;
71814;SDS011;59659;41.520;23.794;2022-08-03T05:16:06;3.63;;;2.00;;
71814;SDS011;59659;41.520;23.794;2022-08-03T05:17:17;5.33;;;2.20;;
71814;SDS011;59659;41.520;23.794;2022-08-03T05:18:29;3.47;;;2.10;;
71814;SDS011;59659;41.520;23.794;2022-08-03T05:19:42;2.70;;;2.00;;
71814;SDS011;59659;41.520;23.794;2022-08-03T05:20:54;2.27;;;1.67;;
71814;SDS011;59659;41.520;23.794;2022-08-03T05:22:05;2.97;;;2.10;;
71814;SDS011;59659;41.520;23.794;2022-08-03T05:23:17;5.13;;;1.70;;
71814;SDS011;59659;41.520;23.794;2022-08-03T05:24:28;2.80;;;2.27;;
71814;SDS011;59659;41.520;23.794;2022-08-03T05:25:40;3.57;;;2.43;;
71814;SDS011;59659;41.520;23.794;2022-08-03T05:27:00;2.67;;;1.70;;
71814;SDS011;59659;41.520;23.794;2022-08-03T05:28:11;2.80;;;2.00;;
71814;SDS011;59659;41.520;23.794;2022-08-03T05:29:23;3.27;;;2.00;;
71814;SDS011;59659;41.520;23.794;2022-08-03T05:30:35;2.27;;;1.77;;
71814;SDS011;59659;41.520;23.794;2022-08-03T05:31:47;2.93;;;2.13;;
71814;SDS011;59659;41.520;23.794;2022-08-03T05:32:58;3.63;;;1.90;;
71814;SDS011;59659;41.520;23.794;2022-08-03T05:34:10;3.23;;;2.40;;
71814;SDS011;59659;41.520;23.794;2022-08-03T05:35:21;4.07;;;2.60;;
71814;SDS011;59659;41.520;23.794;2022-08-03T05:36:57;5.97;;;3.77;;
71814;SDS011;59659;41.520;23.794;2022-08-03T05:38:09;7.83;;;3.10;;
71814;SDS011;59659;41.520;23.794;2022-08-03T05:39:20;3.73;;;2.00;;
71814;SDS011;59659;41.520;23.794;2022-08-03T05:40:32;2.43;;;1.87;;
71814;SDS011;59659;41.520;23.794;2022-08-03T05:41:43;2.83;;;2.10;;
71814;SDS011;59659;41.520;23.794;2022-08-03T05:42:55;2.27;;;1.80;;
71814;SDS011;59659;41.520;23.794;2022-08-03T05:44:08;2.20;;;1.67;;
71814;SDS011;59659;41.520;23.794;2022-08-03T05:45:19;3.03;;;1.90;;
71814;SDS011;59659;41.520;23.794;2022-08-03T05:46:36;3.47;;;2.00;;
71814;SDS011;59659;41.520;23.794;2022-08-03T05:47:48;2.90;;;2.37;;
71814;SDS011;59659;41.520;23.794;2022-08-03T05:49:01;3.53;;;2.40;;
71814;SDS011;59659;41.520;23.794;2022-08-03T05:50:12;4.33;;;2.10;;
71814;SDS011;59659;41.520;23.794;2022-08-03T05:51:24;4.07;;;2.30;;
71814;SDS011;59659;41.520;23.794;2022-08-03T05:52:36;3.57;;;2.53;;
71814;SDS011;59659;41.520;23.794;2022-08-03T05:53:48;4.80;;;2.43;;
71814;SDS011;59659;41.520;23.794;2022-08-03T05:54:59;4.03;;;2.57;;
71814;SDS011;59659;41.520;23.794;2022-08-03T05:56:11;2.47;;;2.20;;
71814;SDS011;59659;41.520;23.794;2022-08-03T05:57:25;3.70;;;2.20;;
71814;SDS011;59659;41.520;23.794;2022-08-03T05:58:37;3.37;;;2.13;;
71814;SDS011;59659;41.520;23.794;2022-08-03T05:59:48;5.13;;;2.90;;
71814;SDS011;59659;41.520;23.794;2022-08-03T06:01:09;2.97;;;2.20;;
71814;SDS011;59659;41.520;23.794;2022-08-03T06:02:20;4.10;;;2.20;;
71814;SDS011;59659;41.520;23.794;2022-08-03T06:03:32;2.60;;;1.93;;
71814;SDS011;59659;41.520;23.794;2022-08-03T06:04:43;4.30;;;2.47;;
71814;SDS011;59659;41.520;23.794;2022-08-03T06:05:55;2.70;;;2.20;;
71814;SDS011;59659;41.520;23.794;2022-08-03T06:07:10;8.07;;;2.20;;
71814;SDS011;59659;41.520;23.794;2022-08-03T06:08:22;2.77;;;2.00;;
71814;SDS011;59659;41.520;23.794;2022-08-03T06:09:34;2.67;;;2.00;;
71814;SDS011;59659;41.520;23.794;2022-08-03T06:11:05;7.17;;;2.37;;
71814;SDS011;59659;41.520;23.794;2022-08-03T06:12:17;3.10;;;2.17;;
71814;SDS011;59659;41.520;23.794;2022-08-03T06:13:29;3.40;;;2.33;;
71814;SDS011;59659;41.520;23.794;2022-08-03T06:14:41;3.67;;;2.10;;
71814;SDS011;59659;41.520;23.794;2022-08-03T06:15:52;3.23;;;2.20;;
71814;SDS011;59659;41.520;23.794;2022-08-03T06:17:04;1.77;;;1.67;;
71814;SDS011;59659;41.520;23.794;2022-08-03T06:18:15;1.73;;;1.60;;
71814;SDS011;59659;41.520;23.794;2022-08-03T06:19:27;3.50;;;1.67;;
71814;SDS011;59659;41.520;23.794;2022-08-03T06:20:38;4.90;;;2.30;;
71814;SDS011;59659;41.520;23.794;2022-08-03T06:21:50;1.97;;;1.60;;
71814;SDS011;59659;41.520;23.794;2022-08-03T06:23:01;4.70;;;2.00;;
71814;SDS011;59659;41.520;23.794;2022-08-03T06:24:13;6.13;;;2.27;;
71814;SDS011;59659;41.520;23.794;2022-08-03T06:25:25;2.50;;;1.90;;
71814;SDS011;59659;41.520;23.794;2022-08-03T06:26:37;3.87;;;2.00;;
71814;SDS011;59659;41.520;23.794;2022-08-03T06:27:49;6.83;;;2.30;;
71814;SDS011;59659;41.520;23.794;2022-08-03T06:29:00;3.13;;;2.30;;
71814;SDS011;59659;41.520;23.794;2022-08-03T06:30:14;2.70;;;1.77;;
71814;SDS011;59659;41.520;23.794;2022-08-03T06:31:31;3.90;;;2.00;;
71814;SDS011;59659;41.520;23.794;2022-08-03T06:32:44;2.90;;;2.10;;
71814;SDS011;59659;41.520;23.794;2022-08-03T06:34:03;2.97;;;2.60;;
71814;SDS011;59659;41.520;23.794;2022-08-03T06:35:34;3.13;;;1.87;;
71814;SDS011;59659;41.520;23.794;2022-08-03T06:36:47;2.47;;;2.07;;
71814;SDS011;59659;41.520;23.794;2022-08-03T06:38:02;5.40;;;2.00;;
71814;SDS011;59659;41.520;23.794;2022-08-03T06:39:14;4.20;;;1.87;;
71814;SDS011;59659;41.520;23.794;2022-08-03T06:40:25;5.93;;;2.13;;
71814;SDS011;59659;41.520;23.794;2022-08-03T06:41:41;2.60;;;1.77;;
71814;SDS011;59659;41.520;23.794;2022-08-03T06:42:55;2.23;;;1.73;;
71814;SDS011;59659;41.520;23.794;2022-08-03T06:44:07;2.60;;;2.00;;
71814;SDS011;59659;41.520;23.794;2022-08-03T06:45:20;2.30;;;1.80;;
71814;SDS011;59659;41.520;23.794;2022-08-03T06:46:32;3.00;;;1.70;;
71814;SDS011;59659;41.520;23.794;2022-08-03T06:47:43;9.40;;;2.30;;
71814;SDS011;59659;41.520;23.794;2022-08-03T06:48:55;3.03;;;2.23;;
71814;SDS011;59659;41.520;23.794;2022-08-03T06:50:07;12.23;;;2.10;;
71814;SDS011;59659;41.520;23.794;2022-08-03T06:51:28;3.43;;;2.17;;
71814;SDS011;59659;41.520;23.794;2022-08-03T06:53:00;3.43;;;2.40;;
71814;SDS011;59659;41.520;23.794;2022-08-03T06:54:11;3.30;;;2.03;;
71814;SDS011;59659;41.520;23.794;2022-08-03T06:55:23;4.20;;;1.90;;
71814;SDS011;59659;41.520;23.794;2022-08-03T06:56:34;6.30;;;2.40;;
71814;SDS011;59659;41.520;23.794;2022-08-03T06:57:46;2.40;;;1.80;;
71814;SDS011;59659;41.520;23.794;2022-08-03T06:58:58;3.53;;;1.87;;
71814;SDS011;59659;41.520;23.794;2022-08-03T07:00:12;3.87;;;1.60;;
71814;SDS011;59659;41.520;23.794;2022-08-03T07:01:25;2.60;;;1.77;;
71814;SDS011;59659;41.520;23.794;2022-08-03T07:02:37;2.43;;;1.63;;
71814;SDS011;59659;41.520;23.794;2022-08-03T07:03:49;2.53;;;1.90;;
71814;SDS011;59659;41.520;23.794;2022-08-03T07:05:02;7.80;;;1.80;;
71814;SDS011;59659;41.520;23.794;2022-08-03T07:06:14;13.17;;;1.90;;
71814;SDS011;59659;41.520;23.794;2022-08-03T07:07:26;4.50;;;2.17;;
71814;SDS011;59659;41.520;23.794;2022-08-03T07:08:37;2.13;;;1.70;;
71814;SDS011;59659;41.520;23.794;2022-08-03T07:09:49;2.55;;;1.80;;
71814;SDS011;59659;41.520;23.794;2022-08-03T07:11:08;4.38;;;1.90;;
71814;SDS011;59659;41.520;23.794;2022-08-03T07:12:19;3.93;;;2.00;;
71814;SDS011;59659;41.520;23.794;2022-08-03T07:13:31;3.28;;;2.58;;
71814;SDS011;59659;41.520;23.794;2022-08-03T07:14:42;2.30;;;1.50;;
71814;SDS011;59659;41.520;23.794;2022-08-03T07:15:54;1.45;;;1.20;;
71814;SDS011;59659;41.520;23.794;2022-08-03T07:17:06;5.70;;;1.98;;
71814;SDS011;59659;41.520;23.794;2022-08-03T07:18:22;1.73;;;1.40;;
71814;SDS011;59659;41.520;23.794;2022-08-03T07:19:40;1.88;;;1.50;;
71814;SDS011;59659;41.520;23.794;2022-08-03T07:20:51;1.63;;;1.27;;
71814;SDS011;59659;41.520;23.794;2022-08-03T07:22:03;1.83;;;1.45;;
71814;SDS011;59659;41.520;23.794;2022-08-03T07:23:14;4.30;;;1.33;;
71814;SDS011;59659;41.520;23.794;2022-08-03T07:24:29;1.67;;;1.58;;
71814;SDS011;59659;41.520;23.794;2022-08-03T07:25:41;2.30;;;1.98;;
71814;SDS011;59659;41.520;23.794;2022-08-03T07:26:52;2.50;;;1.60;;
71814;SDS011;59659;41.520;23.794;2022-08-03T07:28:04;1.92;;;1.40;;
71814;SDS011;59659;41.520;23.794;2022-08-03T07:29:15;2.08;;;1.58;;
71814;SDS011;59659;41.520;23.794;2022-08-03T07:30:27;1.88;;;1.55;;
71814;SDS011;59659;41.520;23.794;2022-08-03T07:31:38;2.83;;;1.55;;
71814;SDS011;59659;41.520;23.794;2022-08-03T07:32:50;2.83;;;2.08;;
71814;SDS011;59659;41.520;23.794;2022-08-03T07:34:02;1.92;;;1.55;;